createdAt,value
2023-02-14T00:00:46.378Z,0.00
2023-02-14T00:01:46.396Z,0.00
2023-02-14T00:02:46.352Z,0.00
2023-02-14T00:03:46.348Z,0.00
2023-02-14T00:04:46.379Z,0.00
2023-02-14T00:05:46.319Z,0.00
2023-02-14T00:06:46.317Z,0.00
2023-02-14T00:07:46.330Z,0.00
2023-02-14T00:08:46.295Z,0.00
2023-02-14T00:09:46.276Z,0.00
2023-02-14T00:10:46.266Z,0.00
2023-02-14T00:11:46.251Z,0.00
2023-02-14T00:12:46.239Z,0.00
2023-02-14T00:13:46.258Z,0.00
2023-02-14T00:14:46.227Z,0.00
2023-02-14T00:15:54.094Z,0.00
2023-02-14T00:16:46.207Z,0.00
2023-02-14T00:17:46.199Z,0.00
2023-02-14T00:18:46.206Z,0.00
2023-02-14T00:19:46.177Z,0.00
2023-02-14T00:20:46.163Z,0.00
2023-02-14T00:21:46.146Z,0.00
2023-02-14T00:22:46.143Z,0.00
2023-02-14T00:23:46.129Z,0.00
2023-02-14T00:24:46.143Z,0.00
2023-02-14T00:25:46.106Z,0.00
2023-02-14T00:26:46.099Z,0.00
2023-02-14T00:27:46.082Z,0.00
2023-02-14T00:28:46.075Z,0.00
2023-02-14T00:29:46.097Z,0.00
2023-02-14T00:30:46.086Z,0.00
2023-02-14T00:31:46.151Z,0.00
2023-02-14T00:32:46.058Z,0.00
2023-02-14T00:33:46.025Z,0.00
2023-02-14T00:34:46.046Z,0.00
2023-02-14T00:35:45.998Z,0.00
2023-02-14T00:36:45.996Z,0.00
2023-02-14T00:37:45.975Z,0.00
2023-02-14T00:38:45.972Z,0.00
2023-02-14T00:39:45.978Z,0.00
2023-02-14T00:40:45.936Z,0.00
2023-02-14T00:41:45.940Z,0.00
2023-02-14T00:42:45.915Z,0.00
2023-02-14T00:43:45.919Z,0.00
2023-02-14T00:44:45.916Z,0.00
2023-02-14T00:45:45.948Z,0.00
2023-02-14T00:46:45.883Z,0.00
2023-02-14T00:47:45.864Z,0.00
2023-02-14T00:48:45.856Z,0.00
2023-02-14T00:49:45.867Z,0.00
2023-02-14T00:50:45.872Z,0.00
2023-02-14T00:51:45.826Z,0.00
2023-02-14T00:52:45.812Z,0.00
2023-02-14T00:53:45.800Z,0.00
2023-02-14T00:54:45.785Z,0.00
2023-02-14T00:55:45.775Z,0.00
2023-02-14T00:56:45.788Z,0.00
2023-02-14T00:57:45.746Z,0.00
2023-02-14T00:58:45.743Z,0.00
2023-02-14T00:59:45.725Z,0.00
2023-02-14T01:00:45.733Z,0.00
2023-02-14T01:01:45.734Z,0.00
2023-02-14T01:02:45.744Z,0.00
2023-02-14T01:03:45.716Z,0.00
2023-02-14T01:04:45.674Z,0.00
2023-02-14T01:05:45.655Z,0.00
2023-02-14T01:06:45.649Z,0.00
2023-02-14T01:07:45.644Z,0.00
2023-02-14T01:08:45.635Z,0.00
2023-02-14T01:09:45.634Z,0.00
2023-02-14T01:10:45.614Z,0.00
2023-02-14T01:11:45.628Z,0.00
2023-02-14T01:12:45.584Z,0.00
2023-02-14T01:13:45.574Z,0.00
2023-02-14T01:14:45.591Z,0.00
2023-02-14T01:15:45.553Z,0.00
2023-02-14T01:16:45.605Z,0.00
2023-02-14T01:17:45.524Z,0.00
2023-02-14T01:18:45.514Z,0.00
2023-02-14T01:19:45.531Z,0.00
2023-02-14T01:20:45.500Z,0.00
2023-02-14T01:21:45.480Z,0.00
2023-02-14T01:22:45.474Z,0.00
2023-02-14T01:23:45.466Z,0.00
2023-02-14T01:24:45.481Z,0.00
2023-02-14T01:25:45.449Z,0.00
2023-02-14T01:26:45.431Z,0.00
2023-02-14T01:27:45.417Z,0.00
2023-02-14T01:28:45.403Z,0.00
2023-02-14T01:29:45.404Z,0.00
2023-02-14T01:30:45.429Z,0.00
2023-02-14T01:31:45.404Z,0.00
2023-02-14T01:32:45.373Z,0.00
2023-02-14T01:33:45.343Z,0.00
2023-02-14T01:34:45.342Z,0.00
2023-02-14T01:35:45.321Z,0.00
2023-02-14T01:36:45.335Z,0.00
2023-02-14T01:37:45.305Z,0.00
2023-02-14T01:38:45.294Z,0.00
2023-02-14T01:39:45.286Z,0.00
2023-02-14T01:40:45.312Z,0.00
2023-02-14T01:41:45.285Z,0.00
2023-02-14T01:42:45.265Z,0.00
2023-02-14T01:43:45.245Z,0.00
2023-02-14T01:44:45.236Z,0.00
2023-02-14T01:45:45.283Z,0.00
2023-02-14T01:46:45.237Z,0.00
2023-02-14T01:47:45.204Z,0.00
2023-02-14T01:48:45.188Z,0.00
2023-02-14T01:49:45.178Z,0.00
2023-02-14T01:50:45.184Z,0.00
2023-02-14T01:51:45.183Z,0.00
2023-02-14T01:52:45.141Z,0.00
2023-02-14T01:53:45.139Z,0.00
2023-02-14T01:54:45.127Z,0.00
2023-02-14T01:55:45.128Z,0.00
2023-02-14T01:56:45.104Z,0.00
2023-02-14T01:57:45.109Z,0.00
2023-02-14T01:58:45.080Z,0.00
2023-02-14T01:59:45.066Z,0.00
2023-02-14T02:00:45.112Z,0.00
2023-02-14T02:01:45.066Z,0.00
2023-02-14T02:02:45.036Z,0.00
2023-02-14T02:03:45.029Z,0.00
2023-02-14T02:04:45.017Z,0.00
2023-02-14T02:05:45.000Z,0.00
2023-02-14T02:06:45.015Z,0.00
2023-02-14T02:07:44.975Z,0.00
2023-02-14T02:08:44.974Z,0.00
2023-02-14T02:09:44.958Z,0.00
2023-02-14T02:10:44.951Z,0.00
2023-02-14T02:11:44.942Z,0.00
2023-02-14T02:12:44.950Z,0.00
2023-02-14T02:13:44.910Z,0.00
2023-02-14T02:14:44.909Z,0.00
2023-02-14T02:15:44.896Z,0.00
2023-02-14T02:16:44.959Z,0.00
2023-02-14T02:17:44.891Z,0.00
2023-02-14T02:18:44.905Z,0.00
2023-02-14T02:19:44.855Z,0.00
2023-02-14T02:20:44.835Z,0.00
2023-02-14T02:21:44.821Z,0.00
2023-02-14T02:22:44.841Z,0.00
2023-02-14T02:23:44.797Z,0.00
2023-02-14T02:24:44.796Z,0.00
2023-02-14T02:25:44.781Z,0.00
2023-02-14T02:26:44.767Z,0.00
2023-02-14T02:27:44.785Z,0.00
2023-02-14T02:28:44.748Z,0.00
2023-02-14T02:29:44.748Z,0.00
2023-02-14T02:30:44.789Z,0.00
2023-02-14T02:31:44.883Z,0.00
2023-02-14T02:32:44.728Z,0.00
2023-02-14T02:33:44.700Z,0.00
2023-02-14T02:34:44.684Z,0.00
2023-02-14T02:35:44.689Z,0.00
2023-02-14T02:36:44.658Z,0.00
2023-02-14T02:37:44.668Z,0.00
2023-02-14T02:38:44.645Z,0.00
2023-02-14T02:39:44.628Z,0.00
2023-02-14T02:40:44.645Z,0.00
2023-02-14T02:41:44.616Z,0.00
2023-02-14T02:42:44.605Z,0.00
2023-02-14T02:43:44.608Z,0.00
2023-02-14T02:44:44.580Z,0.00
2023-02-14T02:45:44.629Z,0.00
2023-02-14T02:46:44.550Z,0.00
2023-02-14T02:47:44.542Z,0.00
2023-02-14T02:48:44.558Z,0.00
2023-02-14T02:49:44.514Z,0.00
2023-02-14T02:50:44.516Z,0.00
2023-02-14T02:51:44.517Z,0.00
2023-02-14T02:52:44.489Z,0.00
2023-02-14T02:53:44.479Z,0.00
2023-02-14T02:54:44.494Z,0.00
2023-02-14T02:55:44.457Z,0.00
2023-02-14T02:56:44.442Z,0.00
2023-02-14T02:57:44.434Z,0.00
2023-02-14T02:58:44.487Z,0.00
2023-02-14T02:59:44.415Z,0.00
2023-02-14T03:00:44.424Z,0.00
2023-02-14T03:01:44.408Z,0.00
2023-02-14T03:02:44.378Z,0.00
2023-02-14T03:03:44.367Z,0.00
2023-02-14T03:04:44.433Z,0.00
2023-02-14T03:05:44.346Z,0.00
2023-02-14T03:06:44.325Z,0.00
2023-02-14T03:07:44.326Z,0.00
2023-02-14T03:08:44.307Z,0.00
2023-02-14T03:09:44.295Z,0.00
2023-02-14T03:10:44.322Z,0.00
2023-02-14T03:11:44.273Z,0.00
2023-02-14T03:12:44.265Z,0.00
2023-02-14T03:13:44.289Z,0.00
2023-02-14T03:14:44.245Z,0.00
2023-02-14T03:15:44.325Z,0.00
2023-02-14T03:16:44.216Z,0.00
2023-02-14T03:17:44.206Z,0.00
2023-02-14T03:18:44.197Z,0.00
2023-02-14T03:19:44.187Z,0.00
2023-02-14T03:20:44.186Z,0.00
2023-02-14T03:21:44.185Z,0.00
2023-02-14T03:22:44.158Z,0.00
2023-02-14T03:23:44.143Z,0.00
2023-02-14T03:24:44.152Z,0.00
2023-02-14T03:25:44.116Z,0.00
2023-02-14T03:26:44.136Z,0.00
2023-02-14T03:27:44.098Z,0.00
2023-02-14T03:28:44.091Z,0.00
2023-02-14T03:29:44.074Z,0.00
2023-02-14T03:30:44.119Z,0.00
2023-02-14T03:31:44.140Z,0.00
2023-02-14T03:32:44.046Z,0.00
2023-02-14T03:33:44.024Z,0.00
2023-02-14T03:34:44.048Z,0.00
2023-02-14T03:35:44.006Z,0.00
2023-02-14T03:36:44.016Z,0.00
2023-02-14T03:37:43.998Z,0.00
2023-02-14T03:38:43.975Z,0.00
2023-02-14T03:39:43.985Z,0.00
2023-02-14T03:40:43.947Z,0.00
2023-02-14T03:41:43.972Z,0.00
2023-02-14T03:42:43.926Z,0.00
2023-02-14T03:43:43.917Z,0.00
2023-02-14T03:44:43.914Z,0.00
2023-02-14T03:45:43.914Z,0.00
2023-02-14T03:46:43.972Z,0.00
2023-02-14T03:47:43.896Z,0.00
2023-02-14T03:48:43.879Z,0.00
2023-02-14T03:49:43.848Z,0.00
2023-02-14T03:50:43.847Z,0.00
2023-02-14T03:51:43.827Z,0.00
2023-02-14T03:52:43.823Z,0.00
2023-02-14T03:53:43.838Z,0.00
2023-02-14T03:54:43.804Z,0.00
2023-02-14T03:55:43.805Z,0.00
2023-02-14T03:56:43.777Z,0.00
2023-02-14T03:57:43.767Z,0.00
2023-02-14T03:58:43.766Z,0.00
2023-02-14T03:59:43.763Z,0.00
2023-02-14T04:00:43.727Z,0.00
2023-02-14T04:01:43.760Z,0.00
2023-02-14T04:02:43.732Z,0.00
2023-02-14T04:03:43.728Z,0.00
2023-02-14T04:04:43.715Z,0.00
2023-02-14T04:05:43.712Z,0.00
2023-02-14T04:06:43.654Z,0.00
2023-02-14T04:07:43.652Z,0.00
2023-02-14T04:08:43.646Z,0.00
2023-02-14T04:09:43.625Z,0.00
2023-02-14T04:10:43.647Z,0.00
2023-02-14T04:11:43.610Z,0.00
2023-02-14T04:12:43.601Z,0.00
2023-02-14T04:13:43.587Z,0.00
2023-02-14T04:14:43.572Z,0.00
2023-02-14T04:15:43.675Z,0.00
2023-02-14T04:16:43.544Z,0.00
2023-02-14T04:17:43.546Z,0.00
2023-02-14T04:18:43.532Z,0.00
2023-02-14T04:19:43.517Z,0.00
2023-02-14T04:20:43.536Z,0.00
2023-02-14T04:21:43.527Z,0.00
2023-02-14T04:22:43.489Z,0.00
2023-02-14T04:23:43.474Z,0.00
2023-02-14T04:24:43.454Z,0.00
2023-02-14T04:25:43.450Z,0.00
2023-02-14T04:26:43.434Z,0.00
2023-02-14T04:27:43.451Z,0.00
2023-02-14T04:28:43.418Z,0.00
2023-02-14T04:29:43.410Z,0.00
2023-02-14T04:30:43.393Z,0.00
2023-02-14T04:31:43.445Z,0.00
2023-02-14T04:32:43.392Z,0.00
2023-02-14T04:33:43.355Z,0.00
2023-02-14T04:34:43.351Z,0.00
2023-02-14T04:35:43.343Z,0.00
2023-02-14T04:36:43.320Z,0.00
2023-02-14T04:37:43.333Z,0.00
2023-02-14T04:38:43.324Z,0.00
2023-02-14T04:39:43.284Z,0.00
2023-02-14T04:40:43.279Z,0.00
2023-02-14T04:41:43.263Z,0.00
2023-02-14T04:42:43.252Z,0.00
2023-02-14T04:43:43.292Z,0.00
2023-02-14T04:44:43.229Z,0.00
2023-02-14T04:45:43.247Z,0.00
2023-02-14T04:46:43.275Z,0.00
2023-02-14T04:47:43.201Z,0.00
2023-02-14T04:48:43.218Z,0.00
2023-02-14T04:49:43.191Z,0.00
2023-02-14T04:50:43.169Z,0.00
2023-02-14T04:51:43.155Z,0.00
2023-02-14T04:52:43.142Z,0.00
2023-02-14T04:53:43.155Z,0.00
2023-02-14T04:54:43.119Z,0.00
2023-02-14T04:55:43.109Z,0.00
2023-02-14T04:56:43.102Z,0.00
2023-02-14T04:57:43.090Z,0.00
2023-02-14T04:58:43.081Z,0.00
2023-02-14T04:59:43.088Z,0.00
2023-02-14T05:00:43.098Z,0.00
2023-02-14T05:01:43.079Z,0.00
2023-02-14T05:02:43.031Z,0.00
2023-02-14T05:03:43.025Z,0.00
2023-02-14T05:04:43.052Z,0.00
2023-02-14T05:05:42.995Z,0.00
2023-02-14T05:06:42.989Z,0.00
2023-02-14T05:07:42.977Z,0.00
2023-02-14T05:08:42.978Z,0.00
2023-02-14T05:09:42.959Z,0.00
2023-02-14T05:10:42.958Z,0.00
2023-02-14T05:11:42.959Z,0.00
2023-02-14T05:12:42.925Z,0.00
2023-02-14T05:13:42.910Z,0.00
2023-02-14T05:14:42.888Z,0.00
2023-02-14T05:15:42.885Z,0.00
2023-02-14T05:16:42.952Z,0.00
2023-02-14T05:17:42.887Z,0.00
2023-02-14T05:18:42.847Z,0.00
2023-02-14T05:19:42.837Z,0.00
2023-02-14T05:20:42.856Z,0.00
2023-02-14T05:21:42.818Z,0.00
2023-02-14T05:22:42.804Z,0.00
2023-02-14T05:23:42.795Z,0.00
2023-02-14T05:24:42.786Z,0.00
2023-02-14T05:25:42.770Z,0.00
2023-02-14T05:26:42.776Z,0.00
2023-02-14T05:27:42.774Z,0.00
2023-02-14T05:28:42.752Z,0.00
2023-02-14T05:29:43.484Z,0.00
2023-02-14T05:30:42.843Z,0.00
2023-02-14T05:31:42.892Z,0.00
2023-02-14T05:32:42.694Z,0.00
2023-02-14T05:33:42.674Z,0.00
2023-02-14T05:34:42.676Z,0.00
2023-02-14T05:35:42.654Z,0.00
2023-02-14T05:36:42.644Z,0.00
2023-02-14T05:37:42.657Z,0.00
2023-02-14T05:38:42.622Z,0.00
2023-02-14T05:39:42.616Z,0.00
2023-02-14T05:40:42.668Z,0.00
2023-02-14T05:41:43.676Z,0.00
2023-02-14T05:42:42.816Z,0.00
2023-02-14T05:43:42.572Z,0.00
2023-02-14T05:44:42.558Z,0.00
2023-02-14T05:45:42.630Z,0.00
2023-02-14T05:46:42.535Z,0.00
2023-02-14T05:47:42.541Z,0.00
2023-02-14T05:48:42.551Z,0.00
2023-02-14T05:49:42.511Z,0.00
2023-02-14T05:50:42.502Z,0.00
2023-02-14T05:51:42.495Z,0.00
2023-02-14T05:52:42.502Z,0.00
2023-02-14T05:53:42.467Z,0.00
2023-02-14T05:54:42.477Z,0.00
2023-02-14T05:55:42.450Z,0.00
2023-02-14T05:56:42.436Z,0.00
2023-02-14T05:57:42.460Z,0.00
2023-02-14T05:58:42.410Z,0.00
2023-02-14T05:59:42.398Z,0.00
2023-02-14T06:00:42.396Z,0.00
2023-02-14T06:01:42.387Z,0.00
2023-02-14T06:02:42.374Z,0.00
2023-02-14T06:03:42.381Z,0.00
2023-02-14T06:04:42.449Z,0.00
2023-02-14T06:05:42.337Z,0.00
2023-02-14T06:06:42.347Z,0.00
2023-02-14T06:07:42.338Z,0.00
2023-02-14T06:08:42.344Z,0.00
2023-02-14T06:09:42.299Z,0.00
2023-02-14T06:10:42.292Z,0.00
2023-02-14T06:11:42.279Z,0.00
2023-02-14T06:12:42.261Z,0.00
2023-02-14T06:13:42.278Z,4.00
2023-02-14T06:14:42.242Z,4.00
2023-02-14T06:15:50.017Z,0.00
2023-02-14T06:16:42.248Z,4.00
2023-02-14T06:17:42.228Z,4.00
2023-02-14T06:18:42.228Z,4.00
2023-02-14T06:19:42.199Z,4.00
2023-02-14T06:20:42.180Z,8.00
2023-02-14T06:21:42.169Z,8.00
2023-02-14T06:22:42.158Z,8.00
2023-02-14T06:23:42.163Z,8.00
2023-02-14T06:24:42.158Z,12.00
2023-02-14T06:25:42.134Z,12.00
2023-02-14T06:26:42.156Z,20.00
2023-02-14T06:27:42.110Z,16.00
2023-02-14T06:28:42.091Z,24.00
2023-02-14T06:29:42.104Z,28.00
2023-02-14T06:30:42.292Z,32.00
2023-02-14T06:31:42.225Z,36.00
2023-02-14T06:32:42.074Z,44.00
2023-02-14T06:33:42.040Z,52.00
2023-02-14T06:34:42.034Z,56.00
2023-02-14T06:35:42.039Z,68.00
2023-02-14T06:36:42.008Z,80.00
2023-02-14T06:37:41.998Z,88.00
2023-02-14T06:38:42.012Z,104.00
2023-02-14T06:39:41.979Z,116.00
2023-02-14T06:40:41.958Z,132.00
2023-02-14T06:41:41.955Z,144.00
2023-02-14T06:42:41.960Z,160.00
2023-02-14T06:43:41.928Z,180.00
2023-02-14T06:44:41.960Z,196.00
2023-02-14T06:45:41.916Z,216.00
2023-02-14T06:46:41.927Z,236.00
2023-02-14T06:47:41.895Z,260.00
2023-02-14T06:48:41.880Z,284.00
2023-02-14T06:49:41.877Z,308.00
2023-02-14T06:50:41.869Z,336.00
2023-02-14T06:51:41.880Z,360.00
2023-02-14T06:52:41.840Z,388.00
2023-02-14T06:53:41.830Z,416.00
2023-02-14T06:54:41.818Z,444.00
2023-02-14T06:55:43.759Z,476.00
2023-02-14T06:56:41.799Z,504.00
2023-02-14T06:57:41.827Z,532.00
2023-02-14T06:58:41.768Z,564.00
2023-02-14T06:59:41.772Z,592.00
2023-02-14T07:00:41.749Z,620.00
2023-02-14T07:01:41.823Z,652.00
2023-02-14T07:02:41.789Z,684.00
2023-02-14T07:03:41.746Z,720.00
2023-02-14T07:04:41.717Z,756.00
2023-02-14T07:05:41.702Z,792.00
2023-02-14T07:06:41.734Z,820.00
2023-02-14T07:07:41.685Z,856.00
2023-02-14T07:08:41.666Z,888.00
2023-02-14T07:09:41.693Z,920.00
2023-02-14T07:10:41.658Z,952.00
2023-02-14T07:11:41.637Z,976.00
2023-02-14T07:12:41.627Z,1008.00
2023-02-14T07:13:41.617Z,1036.00
2023-02-14T07:14:41.607Z,1064.00
2023-02-14T07:15:41.647Z,1092.00
2023-02-14T07:16:41.611Z,1124.00
2023-02-14T07:17:41.587Z,1152.00
2023-02-14T07:18:41.586Z,1176.00
2023-02-14T07:19:41.564Z,1200.00
2023-02-14T07:20:41.549Z,1224.00
2023-02-14T07:21:41.570Z,1248.00
2023-02-14T07:22:41.517Z,1276.00
2023-02-14T07:23:41.526Z,1304.00
2023-02-14T07:24:41.496Z,1328.00
2023-02-14T07:25:41.498Z,1356.00
2023-02-14T07:26:41.477Z,1384.00
2023-02-14T07:27:41.494Z,1396.00
2023-02-14T07:28:42.880Z,1416.00
2023-02-14T07:29:41.472Z,1440.00
2023-02-14T07:30:41.463Z,1460.00
2023-02-14T07:31:41.532Z,1484.00
2023-02-14T07:32:41.426Z,1504.00
2023-02-14T07:33:41.422Z,1528.00
2023-02-14T07:34:41.396Z,1548.00
2023-02-14T07:35:41.384Z,1568.00
2023-02-14T07:36:41.375Z,1588.00
2023-02-14T07:37:41.360Z,1604.00
2023-02-14T07:38:41.386Z,1628.00
2023-02-14T07:39:41.336Z,1644.00
2023-02-14T07:40:41.332Z,1660.00
2023-02-14T07:41:41.330Z,1676.00
2023-02-14T07:42:41.303Z,1692.00
2023-02-14T07:43:41.312Z,1712.00
2023-02-14T07:44:41.304Z,1728.00
2023-02-14T07:45:41.272Z,1740.00
2023-02-14T07:46:41.294Z,1756.00
2023-02-14T07:47:41.253Z,1776.00
2023-02-14T07:48:41.234Z,1792.00
2023-02-14T07:49:41.237Z,1812.00
2023-02-14T07:50:41.237Z,1824.00
2023-02-14T07:51:41.220Z,1840.00
2023-02-14T07:52:41.195Z,1856.00
2023-02-14T07:53:41.202Z,1868.00
2023-02-14T07:54:41.191Z,1888.00
2023-02-14T07:55:41.194Z,1904.00
2023-02-14T07:56:41.142Z,1916.00
2023-02-14T07:57:41.136Z,1928.00
2023-02-14T07:58:41.127Z,1936.00
2023-02-14T07:59:41.109Z,1948.00
2023-02-14T08:00:41.124Z,1960.00
2023-02-14T08:01:41.151Z,1972.00
2023-02-14T08:02:41.084Z,1980.00
2023-02-14T08:03:41.071Z,1996.00
2023-02-14T08:04:41.079Z,2012.00
2023-02-14T08:05:41.115Z,2020.00
2023-02-14T08:06:41.033Z,2032.00
2023-02-14T08:07:41.025Z,2044.00
2023-02-14T08:08:41.021Z,2056.00
2023-02-14T08:09:41.101Z,2064.00
2023-02-14T08:10:40.985Z,2076.00
2023-02-14T08:11:40.975Z,2088.00
2023-02-14T08:12:40.990Z,2096.00
2023-02-14T08:13:40.984Z,2104.00
2023-02-14T08:14:40.990Z,2108.00
2023-02-14T08:15:40.983Z,2124.00
2023-02-14T08:16:40.943Z,2132.00
2023-02-14T08:17:40.919Z,2144.00
2023-02-14T08:18:40.933Z,2156.00
2023-02-14T08:19:40.933Z,2168.00
2023-02-14T08:20:40.883Z,2180.00
2023-02-14T08:21:40.861Z,2180.00
2023-02-14T08:22:40.859Z,2188.00
2023-02-14T08:23:40.842Z,2200.00
2023-02-14T08:24:40.846Z,2212.00
2023-02-14T08:25:40.842Z,2224.00
2023-02-14T08:26:40.846Z,2236.00
2023-02-14T08:27:40.800Z,2240.00
2023-02-14T08:28:40.798Z,2256.00
2023-02-14T08:29:40.778Z,2268.00
2023-02-14T08:30:40.774Z,2276.00
2023-02-14T08:31:40.782Z,2284.00
2023-02-14T08:32:40.883Z,2292.00
2023-02-14T08:33:40.736Z,2304.00
2023-02-14T08:34:40.730Z,2312.00
2023-02-14T08:35:40.710Z,2316.00
2023-02-14T08:36:40.728Z,2324.00
2023-02-14T08:37:40.689Z,2332.00
2023-02-14T08:38:40.707Z,2340.00
2023-02-14T08:39:40.668Z,2348.00
2023-02-14T08:40:40.656Z,2352.00
2023-02-14T08:41:40.666Z,2360.00
2023-02-14T08:42:40.639Z,2368.00
2023-02-14T08:43:40.623Z,2376.00
2023-02-14T08:44:40.622Z,2384.00
2023-02-14T08:45:40.635Z,2396.00
2023-02-14T08:46:40.716Z,2408.00
2023-02-14T08:47:40.586Z,2416.00
2023-02-14T08:48:40.575Z,2428.00
2023-02-14T08:49:40.563Z,2440.00
2023-02-14T08:50:40.651Z,2444.00
2023-02-14T08:51:40.557Z,2456.00
2023-02-14T08:52:40.565Z,2460.00
2023-02-14T08:53:40.522Z,2472.00
2023-02-14T08:54:40.536Z,2488.00
2023-02-14T08:55:40.581Z,2516.00
2023-02-14T08:56:40.497Z,2540.00
2023-02-14T08:57:40.483Z,2556.00
2023-02-14T08:58:40.471Z,2568.00
2023-02-14T08:59:40.514Z,2584.00
2023-02-14T09:00:40.481Z,2596.00
2023-02-14T09:01:40.460Z,2616.00
2023-02-14T09:02:40.438Z,2628.00
2023-02-14T09:03:40.503Z,2640.00
2023-02-14T09:04:40.448Z,2652.00
2023-02-14T09:05:40.423Z,2668.00
2023-02-14T09:06:40.390Z,2684.00
2023-02-14T09:07:40.387Z,2692.00
2023-02-14T09:08:40.374Z,2712.00
2023-02-14T09:09:40.384Z,2716.00
2023-02-14T09:10:40.335Z,2728.00
2023-02-14T09:11:40.329Z,2744.00
2023-02-14T09:12:40.314Z,2760.00
2023-02-14T09:13:40.329Z,2780.00
2023-02-14T09:14:40.305Z,2796.00
2023-02-14T09:15:40.350Z,2816.00
2023-02-14T09:16:40.398Z,2836.00
2023-02-14T09:17:40.302Z,2856.00
2023-02-14T09:18:40.294Z,2868.00
2023-02-14T09:19:40.257Z,2872.00
2023-02-14T09:20:40.239Z,2888.00
2023-02-14T09:21:40.214Z,2912.00
2023-02-14T09:22:40.219Z,2936.00
2023-02-14T09:23:40.195Z,2952.00
2023-02-14T09:24:40.221Z,2972.00
2023-02-14T09:25:40.181Z,3004.00
2023-02-14T09:26:40.167Z,3040.00
2023-02-14T09:27:40.145Z,3076.00
2023-02-14T09:28:40.144Z,3108.00
2023-02-14T09:29:40.139Z,3148.00
2023-02-14T09:30:40.158Z,3188.00
2023-02-14T09:31:40.253Z,3232.00
2023-02-14T09:32:40.108Z,3288.00
2023-02-14T09:33:40.087Z,3344.00
2023-02-14T09:34:40.079Z,3400.00
2023-02-14T09:35:40.069Z,3456.00
2023-02-14T09:36:40.096Z,3512.00
2023-02-14T09:37:40.039Z,3576.00
2023-02-14T09:38:40.031Z,3644.00
2023-02-14T09:39:40.025Z,3724.00
2023-02-14T09:40:40.032Z,3812.00
2023-02-14T09:41:40.007Z,3884.00
2023-02-14T09:42:39.987Z,3964.00
2023-02-14T09:43:39.994Z,4048.00
2023-02-14T09:44:39.958Z,4132.00
2023-02-14T09:45:40.002Z,4232.00
2023-02-14T09:46:39.938Z,4332.00
2023-02-14T09:47:39.941Z,4444.00
2023-02-14T09:48:39.952Z,4548.00
2023-02-14T09:49:40.049Z,4664.00
2023-02-14T09:50:39.898Z,4776.00
2023-02-14T09:51:39.890Z,4880.00
2023-02-14T09:52:39.871Z,4980.00
2023-02-14T09:53:39.888Z,5072.00
2023-02-14T09:54:39.895Z,5176.00
2023-02-14T09:55:39.872Z,5256.00
2023-02-14T09:56:50.530Z,5356.00
2023-02-14T09:57:40.825Z,5448.00
2023-02-14T09:58:39.849Z,5548.00
2023-02-14T09:59:39.802Z,5628.00
2023-02-14T10:00:39.856Z,5716.00
2023-02-14T10:01:39.769Z,5792.00
2023-02-14T10:02:39.792Z,5876.00
2023-02-14T10:03:39.759Z,5972.00
2023-02-14T10:04:39.924Z,6056.00
2023-02-14T10:05:39.736Z,6136.00
2023-02-14T10:06:39.743Z,6212.00
2023-02-14T10:07:39.701Z,6288.00
2023-02-14T10:08:39.722Z,6388.00
2023-02-14T10:09:39.681Z,6464.00
2023-02-14T10:10:39.858Z,6564.00
2023-02-14T10:11:39.658Z,6712.00
2023-02-14T10:12:39.651Z,6916.00
2023-02-14T10:13:39.638Z,7204.00
2023-02-14T10:14:39.648Z,7744.00
2023-02-14T10:15:39.630Z,9264.00
2023-02-14T10:16:39.622Z,10972.00
2023-02-14T10:17:39.591Z,11852.00
2023-02-14T10:18:39.589Z,12404.00
2023-02-14T10:19:39.606Z,12564.00
2023-02-14T10:20:39.561Z,12988.00
2023-02-14T10:21:39.557Z,13380.00
2023-02-14T10:22:39.540Z,13564.00
2023-02-14T10:23:39.532Z,13400.00
2023-02-14T10:24:39.544Z,13160.00
2023-02-14T10:25:39.521Z,13000.00
2023-02-14T10:26:39.493Z,13312.00
2023-02-14T10:27:39.483Z,13392.00
2023-02-14T10:28:39.473Z,13164.00
2023-02-14T10:29:39.486Z,13308.00
2023-02-14T10:30:39.711Z,13624.00
2023-02-14T10:31:39.579Z,14176.00
2023-02-14T10:32:39.428Z,14464.00
2023-02-14T10:33:39.454Z,14720.00
2023-02-14T10:34:39.424Z,15008.00
2023-02-14T10:35:39.405Z,15072.00
2023-02-14T10:36:39.389Z,14880.00
2023-02-14T10:37:39.384Z,15072.00
2023-02-14T10:38:39.365Z,15488.00
2023-02-14T10:39:39.419Z,15776.00
2023-02-14T10:40:39.345Z,15744.00
2023-02-14T10:41:39.329Z,15680.00
2023-02-14T10:42:39.323Z,15808.00
2023-02-14T10:43:39.312Z,16352.00
2023-02-14T10:44:39.325Z,16480.00
2023-02-14T10:45:39.392Z,16416.00
2023-02-14T10:46:39.309Z,16416.00
2023-02-14T10:47:39.270Z,16480.00
2023-02-14T10:48:39.257Z,16608.00
2023-02-14T10:49:39.250Z,16640.00
2023-02-14T10:50:39.235Z,16672.00
2023-02-14T10:51:39.252Z,16448.00
2023-02-14T10:52:39.211Z,16576.00
2023-02-14T10:53:39.190Z,16736.00
2023-02-14T10:54:39.205Z,17088.00
2023-02-14T10:55:39.178Z,16960.00
2023-02-14T10:56:39.223Z,17088.00
2023-02-14T10:57:39.152Z,17120.00
2023-02-14T10:58:39.142Z,17120.00
2023-02-14T10:59:39.130Z,17152.00
2023-02-14T11:00:39.133Z,17248.00
2023-02-14T11:01:39.145Z,17408.00
2023-02-14T11:02:39.112Z,17568.00
2023-02-14T11:03:39.118Z,17504.00
2023-02-14T11:04:39.073Z,17728.00
2023-02-14T11:05:39.072Z,17888.00
2023-02-14T11:06:39.074Z,17760.00
2023-02-14T11:07:39.048Z,17760.00
2023-02-14T11:08:39.033Z,17536.00
2023-02-14T11:09:39.017Z,17504.00
2023-02-14T11:10:39.012Z,17376.00
2023-02-14T11:11:39.084Z,17184.00
2023-02-14T11:12:39.008Z,16992.00
2023-02-14T11:13:38.988Z,17152.00
2023-02-14T11:14:39.128Z,17280.00
2023-02-14T11:15:38.958Z,17312.00
2023-02-14T11:16:38.974Z,17408.00
2023-02-14T11:17:38.959Z,17504.00
2023-02-14T11:18:38.930Z,17376.00
2023-02-14T11:19:38.917Z,17408.00
2023-02-14T11:20:38.903Z,17760.00
2023-02-14T11:21:38.906Z,18048.00
2023-02-14T11:22:38.906Z,17952.00
2023-02-14T11:23:38.858Z,17792.00
2023-02-14T11:24:38.855Z,17632.00
2023-02-14T11:25:38.856Z,17312.00
2023-02-14T11:26:38.841Z,17184.00
2023-02-14T11:27:38.816Z,17024.00
2023-02-14T11:28:41.796Z,17184.00
2023-02-14T11:29:38.875Z,17536.00
2023-02-14T11:30:38.839Z,17920.00
2023-02-14T11:31:38.828Z,18048.00
2023-02-14T11:32:38.787Z,18368.00
2023-02-14T11:33:38.760Z,18208.00
2023-02-14T11:34:38.766Z,18400.00
2023-02-14T11:35:38.763Z,18656.00
2023-02-14T11:36:38.721Z,18976.00
2023-02-14T11:37:38.709Z,19168.00
2023-02-14T11:38:38.720Z,19072.00
2023-02-14T11:39:38.695Z,19232.00
2023-02-14T11:40:38.708Z,19232.00
2023-02-14T11:41:38.674Z,19360.00
2023-02-14T11:42:38.684Z,19264.00
2023-02-14T11:43:38.643Z,19520.00
2023-02-14T11:44:38.640Z,19968.00
2023-02-14T11:45:38.628Z,20160.00
2023-02-14T11:46:52.298Z,20128.00
2023-02-14T11:47:39.614Z,20256.00
2023-02-14T11:48:39.501Z,20352.00
2023-02-14T11:49:38.575Z,20288.00
2023-02-14T11:50:38.573Z,20160.00
2023-02-14T11:51:38.548Z,20480.00
2023-02-14T11:52:38.549Z,20160.00
2023-02-14T11:53:38.536Z,20288.00
2023-02-14T11:54:38.546Z,20128.00
2023-02-14T11:55:38.515Z,19968.00
2023-02-14T11:56:38.499Z,20352.00
2023-02-14T11:57:38.482Z,20544.00
2023-02-14T11:58:38.469Z,20768.00
2023-02-14T11:59:38.492Z,20736.00
2023-02-14T12:00:38.461Z,20768.00
2023-02-14T12:01:38.441Z,20832.00
2023-02-14T12:02:38.482Z,20480.00
2023-02-14T12:03:38.474Z,20384.00
2023-02-14T12:04:46.173Z,20224.00
2023-02-14T12:05:39.422Z,19872.00
2023-02-14T12:06:38.404Z,19872.00
2023-02-14T12:07:38.382Z,19840.00
2023-02-14T12:08:38.365Z,19808.00
2023-02-14T12:09:38.353Z,19744.00
2023-02-14T12:10:38.371Z,19584.00
2023-02-14T12:11:38.355Z,19296.00
2023-02-14T12:12:38.331Z,19136.00
2023-02-14T12:13:38.305Z,18944.00
2023-02-14T12:14:38.305Z,18752.00
2023-02-14T12:15:38.390Z,18336.00
2023-02-14T12:16:38.301Z,18144.00
2023-02-14T12:17:38.265Z,18144.00
2023-02-14T12:18:46.029Z,18080.00
2023-02-14T12:19:38.246Z,18112.00
2023-02-14T12:20:38.242Z,17920.00
2023-02-14T12:21:38.259Z,17952.00
2023-02-14T12:22:38.249Z,18112.00
2023-02-14T12:23:38.208Z,17792.00
2023-02-14T12:24:38.206Z,16960.00
2023-02-14T12:25:38.191Z,15840.00
2023-02-14T12:26:38.192Z,14628.00
2023-02-14T12:27:38.184Z,13556.00
2023-02-14T12:28:38.149Z,12856.00
2023-02-14T12:29:38.139Z,12608.00
2023-02-14T12:30:38.127Z,12532.00
2023-02-14T12:31:38.194Z,12512.00
2023-02-14T12:32:38.109Z,12588.00
2023-02-14T12:33:38.120Z,12648.00
2023-02-14T12:34:38.082Z,12700.00
2023-02-14T12:35:38.071Z,12812.00
2023-02-14T12:36:38.061Z,12964.00
2023-02-14T12:37:38.073Z,13080.00
2023-02-14T12:38:38.048Z,13204.00